Time;durP1;ratioP1;P1;durP2;ratioP2;P2;SDS_P1;SDS_P2;PMS_P1;PMS_P2;Temp;Humidity;BMP_temperature;BMP_pressure;BME280_temperature;BME280_humidity;BME280_pressure;Samples;Min_cycle;Max_cycle;Signal;HPM_P1;HPM_P2
2023/12/09 00:01:45;;;;;;;;;22.67;18.67;;;;;-143.90;100.00;77020.91;4933949;28;102704;-71
2023/12/09 00:04:12;;;;;;;;;22.00;18.33;;;;;-143.90;100.00;77008.50;4935117;28;102124;-70
2023/12/09 00:06:47;;;;;;;;;21.67;13.33;;;;;-143.90;100.00;77010.56;4931240;28;103323;-69
2023/12/09 00:09:15;;;;;;;;;25.67;15.33;;;;;-143.90;100.00;77000.22;4931348;28;102608;-70
2023/12/09 00:11:42;;;;;;;;;11.33;10.00;;;;;-143.90;100.00;76983.66;4930667;28;101616;-71
2023/12/09 00:14:09;;;;;;;;;52.67;44.00;;;;;-143.90;100.00;77029.19;4933390;28;101895;-69
2023/12/09 00:16:35;;;;;;;;;48.33;36.00;;;;;-143.90;100.00;77022.97;4932402;28;103379;-69
2023/12/09 00:19:02;;;;;;;;;36.00;33.00;;;;;-143.90;100.00;77025.03;4933152;28;102148;-69
2023/12/09 00:21:28;;;;;;;;;36.67;29.00;;;;;-143.90;100.00;77010.56;4933896;28;101663;-69
2023/12/09 00:23:57;;;;;;;;;28.33;21.33;;;;;-143.90;100.00;77000.22;4934066;28;101548;-69
2023/12/09 00:26:24;;;;;;;;;24.00;16.33;;;;;-143.90;100.00;77000.22;4932099;28;107856;-69
2023/12/09 00:28:50;;;;;;;;;14.67;13.00;;;;;-143.90;100.00;76996.09;4933433;28;102447;-69
2023/12/09 00:31:17;;;;;;;;;14.33;11.00;;;;;-143.90;100.00;76987.81;4932870;28;101962;-69
2023/12/09 00:33:44;;;;;;;;;12.67;12.67;;;;;-143.90;100.00;76991.94;4932776;28;102143;-69
2023/12/09 00:36:10;;;;;;;;;16.33;14.00;;;;;-143.90;100.00;76991.94;4930226;28;103398;-69
2023/12/09 00:38:37;;;;;;;;;6.33;4.33;;;;;-143.90;100.00;76996.09;4931822;28;101964;-69
2023/12/09 00:41:04;;;;;;;;;19.67;14.00;;;;;-143.90;100.00;76996.09;4931248;28;101594;-69
2023/12/09 00:43:31;;;;;;;;;13.67;10.00;;;;;-143.90;100.00;76998.16;4932392;28;102215;-70
2023/12/09 00:45:58;;;;;;;;;42.67;36.33;;;;;-143.90;100.00;77047.78;4932989;28;103528;-68
2023/12/09 00:48:24;;;;;;;;;43.00;35.33;;;;;-143.90;100.00;77041.59;4932976;28;102046;-69
2023/12/09 00:50:51;;;;;;;;;59.67;45.67;;;;;-143.90;100.00;77045.72;4929912;28;101866;-69
2023/12/09 00:53:18;;;;;;;;;41.00;34.33;;;;;-143.90;100.00;77033.31;4933562;28;101845;-69
2023/12/09 00:55:45;;;;;;;;;30.00;22.00;;;;;-143.90;100.00;77027.09;4931607;28;103551;-69
2023/12/09 00:58:11;;;;;;;;;22.67;17.67;;;;;-143.90;100.00;77029.19;4932030;28;102164;-69
2023/12/09 01:00:38;;;;;;;;;25.33;22.67;;;;;-143.90;100.00;77029.19;4930417;28;101667;-69
2023/12/09 01:03:04;;;;;;;;;28.33;22.67;;;;;-143.90;100.00;77031.25;4927880;28;102703;-69
2023/12/09 01:05:31;;;;;;;;;24.33;19.00;;;;;-143.90;100.00;77033.31;4930741;28;103413;-69
2023/12/09 01:07:58;;;;;;;;;34.00;29.67;;;;;-143.90;100.00;77043.66;4932446;28;101886;-69
2023/12/09 01:10:24;;;;;;;;;31.33;28.00;;;;;-143.90;100.00;77033.31;4933565;28;102019;-69
2023/12/09 01:12:51;;;;;;;;;43.67;36.33;;;;;-143.90;100.00;77054.00;4930993;28;102270;-69
2023/12/09 01:15:18;;;;;;;;;40.33;32.00;;;;;-143.90;100.00;77056.06;4930618;28;103317;-69
2023/12/09 01:17:44;;;;;;;;;54.75;41.50;;;;;-143.90;100.00;77095.38;4931532;28;101957;-69
2023/12/09 01:20:11;;;;;;;;;49.67;39.00;;;;;-143.90;100.00;77080.88;4928941;28;101595;-69
2023/12/09 01:22:38;;;;;;;;;36.33;29.00;;;;;-143.90;100.00;77070.53;4947863;28;101690;-69
2023/12/09 01:25:06;;;;;;;;;35.67;23.00;;;;;-143.90;100.00;77060.19;4927672;28;103321;-69
2023/12/09 01:27:32;;;;;;;;;26.67;20.00;;;;;-143.90;100.00;77068.47;4930503;28;102129;-70
2023/12/09 01:29:59;;;;;;;;;21.33;17.00;;;;;-143.90;100.00;77060.19;4932345;28;101633;-69
2023/12/09 01:32:26;;;;;;;;;31.33;20.00;;;;;-143.90;100.00;77058.13;4929844;28;102122;-69
2023/12/09 01:34:53;;;;;;;;;18.00;16.67;;;;;-143.90;100.00;77058.13;4928797;28;103575;-69
2023/12/09 01:37:19;;;;;;;;;19.00;16.00;;;;;-143.90;100.00;77058.13;4929206;28;103351;-69
2023/12/09 01:39:46;;;;;;;;;27.00;15.00;;;;;-143.90;100.00;77056.06;4930271;28;102265;-69
2023/12/09 01:42:12;;;;;;;;;22.00;16.67;;;;;-143.90;100.00;77054.00;4929990;28;101853;-69
2023/12/09 01:44:39;;;;;;;;;18.67;14.33;;;;;-143.90;100.00;77054.00;4928390;28;103557;-69
2023/12/09 01:47:06;;;;;;;;;13.67;11.00;;;;;-143.90;100.00;77054.00;4928824;28;102644;-69
2023/12/09 01:49:34;;;;;;;;;13.33;10.67;;;;;-143.90;100.00;77058.13;4928987;28;102100;-69
2023/12/09 01:52:02;;;;;;;;;17.67;11.00;;;;;-143.90;100.00;77049.84;4930533;28;102059;-70
2023/12/09 01:54:28;;;;;;;;;16.00;10.33;;;;;-143.90;100.00;77045.72;4931140;28;103429;-69
2023/12/09 01:56:56;;;;;;;;;10.00;9.67;;;;;-143.90;100.00;77041.59;4928857;28;102079;-68
2023/12/09 01:59:23;;;;;;;;;12.00;9.67;;;;;-143.90;100.00;77039.50;4930453;28;101640;-68
2023/12/09 02:01:51;;;;;;;;;7.67;6.33;;;;;-143.90;100.00;77043.66;4930052;28;105908;-69
2023/12/09 02:04:19;;;;;;;;;7.33;5.00;;;;;-143.90;100.00;77041.59;4928691;28;103541;-69
2023/12/09 02:06:46;;;;;;;;;7.67;6.67;;;;;-143.90;100.00;77041.59;4927202;28;102039;-68
2023/12/09 02:09:12;;;;;;;;;8.67;8.00;;;;;-143.90;100.00;77035.38;4927274;28;102934;-69
2023/12/09 02:11:50;;;;;;;;;8.67;8.00;;;;;-143.90;100.00;77035.38;4928915;28;101560;-69
2023/12/09 02:14:23;;;;;;;;;10.00;8.00;;;;;-143.90;100.00;77041.59;4928623;28;103449;-69
2023/12/09 02:17:08;;;;;;;;;8.33;5.33;;;;;-143.90;100.00;77041.59;4927074;28;104101;-69
2023/12/09 02:19:35;;;;;;;;;14.33;13.67;;;;;-143.90;100.00;77039.50;4925932;28;101588;-69
2023/12/09 02:22:08;;;;;;;;;15.33;11.00;;;;;-143.90;100.00;77049.84;4928706;28;101555;-69
2023/12/09 02:24:35;;;;;;;;;16.00;11.00;;;;;-143.90;100.00;77041.59;4928728;28;103489;-68
2023/12/09 02:27:13;;;;;;;;;9.33;9.33;;;;;-143.90;100.00;77049.84;4929293;28;102464;-69
2023/12/09 02:29:53;;;;;;;;;11.33;10.33;;;;;-143.90;100.00;77041.59;4927693;28;101964;-69
2023/12/09 02:32:23;;;;;;;;;15.00;11.00;;;;;-143.90;100.00;77047.78;4927420;28;102152;-69
2023/12/09 02:34:51;;;;;;;;;12.00;9.00;;;;;-143.90;100.00;77041.59;4927582;28;103373;-69
2023/12/09 02:37:20;;;;;;;;;10.00;7.67;;;;;-143.90;100.00;77037.44;4925688;28;102004;-68
2023/12/09 02:39:47;;;;;;;;;12.33;10.00;;;;;-143.90;100.00;77043.66;4927960;28;101643;-68
2023/12/09 02:42:15;;;;;;;;;11.00;5.67;;;;;-143.90;100.00;77037.44;4943050;28;101641;-68
2023/12/09 02:44:42;;;;;;;;;11.67;7.00;;;;;-143.90;100.00;77033.31;4928824;28;103545;-70
2023/12/09 02:47:13;;;;;;;;;8.00;7.00;;;;;-143.90;100.00;77037.44;4927510;28;101847;-70
2023/12/09 02:49:44;;;;;;;;;8.00;6.33;;;;;-143.90;100.00;77043.66;4929707;28;101585;-70
2023/12/09 02:52:11;;;;;;;;;8.33;7.00;;;;;-143.90;100.00;77043.66;4928702;28;101899;-69
2023/12/09 02:54:38;;;;;;;;;14.00;8.67;;;;;-143.90;100.00;77049.84;4929083;28;103464;-69
2023/12/09 02:57:04;;;;;;;;;16.00;7.67;;;;;-143.90;100.00;77054.00;4929025;28;101797;-70
2023/12/09 02:59:31;;;;;;;;;11.00;8.00;;;;;-143.90;100.00;77058.13;4931738;28;101694;-70
2023/12/09 03:01:57;;;;;;;;;7.00;5.67;;;;;-143.90;100.00;77054.00;4934464;28;101592;-70
2023/12/09 03:04:25;;;;;;;;;11.67;7.00;;;;;-143.90;100.00;77058.13;4928534;28;103612;-70
2023/12/09 03:06:52;;;;;;;;;10.67;5.00;;;;;-143.90;100.00;77058.13;4929040;28;101807;-72
2023/12/09 03:09:18;;;;;;;;;4.00;4.00;;;;;-143.90;100.00;77062.25;4932426;28;102283;-68
2023/12/09 03:11:45;;;;;;;;;10.33;6.33;;;;;-143.90;100.00;77051.94;4932583;28;101672;-68
2023/12/09 03:14:12;;;;;;;;;8.33;5.33;;;;;-143.90;100.00;77056.06;4930379;28;103717;-69
2023/12/09 03:16:39;;;;;;;;;5.67;5.33;;;;;-143.90;100.00;77049.84;4929826;28;101796;-68
2023/12/09 03:19:05;;;;;;;;;5.00;5.00;;;;;-143.90;100.00;77047.78;4930132;28;101571;-69
2023/12/09 03:21:32;;;;;;;;;5.00;4.67;;;;;-143.90;100.00;77045.72;4932514;28;102073;-69
2023/12/09 03:23:59;;;;;;;;;10.00;5.00;;;;;-143.90;100.00;77056.06;4932589;28;103643;-69
2023/12/09 03:26:25;;;;;;;;;7.00;7.00;;;;;-143.90;100.00;77047.78;4929550;28;101539;-69
2023/12/09 03:28:52;;;;;;;;;15.33;10.67;;;;;-143.90;100.00;77054.00;4930666;28;101586;-69
2023/12/09 03:31:19;;;;;;;;;11.67;11.67;;;;;-143.90;100.00;77058.13;4928790;28;101574;-69
2023/12/09 03:33:46;;;;;;;;;16.00;10.00;;;;;-143.90;100.00;77060.19;4933637;28;103483;-69
2023/12/09 03:36:13;;;;;;;;;12.33;8.33;;;;;-143.90;100.00;77058.13;4932656;28;102645;-69
2023/12/09 03:38:41;;;;;;;;;10.00;10.00;;;;;-143.90;100.00;77054.00;4933826;28;101934;-68
2023/12/09 03:41:09;;;;;;;;;10.67;8.00;;;;;-143.90;100.00;77045.72;4935219;28;102789;-69
2023/12/09 03:43:36;;;;;;;;;16.33;12.33;;;;;-143.90;100.00;77049.84;4931911;28;103334;-69
2023/12/09 03:46:03;;;;;;;;;11.00;7.33;;;;;-143.90;100.00;77054.00;4932864;28;101810;-70
2023/12/09 03:48:30;;;;;;;;;13.33;13.00;;;;;-143.90;100.00;77051.94;4952494;28;102087;-69
2023/12/09 03:50:58;;;;;;;;;8.33;7.33;;;;;-143.90;100.00;77049.84;4933115;28;101843;-69
2023/12/09 03:53:25;;;;;;;;;5.33;5.33;;;;;-143.90;100.00;77049.84;4932046;28;105123;-69
2023/12/09 03:55:52;;;;;;;;;12.33;10.00;;;;;-143.90;100.00;77054.00;4933267;28;101882;-69
2023/12/09 03:58:20;;;;;;;;;12.67;6.33;;;;;-143.90;100.00;77049.84;4931516;28;101699;-69
2023/12/09 04:00:47;;;;;;;;;11.00;7.00;;;;;-143.90;100.00;77049.84;4931982;28;102010;-69
2023/12/09 04:03:14;;;;;;;;;8.00;6.33;;;;;-143.90;100.00;77064.34;4933190;28;103362;-69
2023/12/09 04:05:41;;;;;;;;;4.67;4.67;;;;;-143.90;100.00;77056.06;4931614;28;103254;-69
2023/12/09 04:08:08;;;;;;;;;7.00;5.33;;;;;-143.90;100.00;77054.00;4931124;28;101958;-69
2023/12/09 04:10:35;;;;;;;;;8.67;7.00;;;;;-143.90;100.00;77058.13;4931193;28;101602;-69
2023/12/09 04:13:01;;;;;;;;;23.67;20.67;;;;;-143.90;100.00;77060.19;4934096;28;103570;-69
2023/12/09 04:15:28;;;;;;;;;7.00;5.00;;;;;-143.90;100.00;77062.25;4932483;28;102049;-69
2023/12/09 04:17:54;;;;;;;;;7.33;6.67;;;;;-143.90;100.00;77054.00;4930481;28;103037;-69
2023/12/09 04:20:21;;;;;;;;;5.00;4.33;;;;;-143.90;100.00;77054.00;4931074;28;102407;-69
2023/12/09 04:22:48;;;;;;;;;10.00;8.33;;;;;-143.90;100.00;77056.06;4931784;28;103394;-69
2023/12/09 04:25:14;;;;;;;;;8.00;5.67;;;;;-143.90;100.00;77049.84;4932002;28;101921;-68
2023/12/09 04:27:41;;;;;;;;;12.67;10.67;;;;;-143.90;100.00;77060.19;4932690;28;102470;-69
2023/12/09 04:30:09;;;;;;;;;8.00;5.67;;;;;-143.90;100.00;77072.59;4933831;28;101958;-69
2023/12/09 04:32:35;;;;;;;;;6.33;4.33;;;;;-143.90;100.00;77066.41;4932124;28;103360;-69
2023/12/09 04:35:03;;;;;;;;;13.00;8.33;;;;;-143.90;100.00;77062.25;4932199;28;101918;-69
2023/12/09 04:37:30;;;;;;;;;10.00;8.33;;;;;-143.90;100.00;77074.69;4933524;28;103254;-68
2023/12/09 04:39:56;;;;;;;;;15.00;11.67;;;;;-143.90;100.00;77078.81;4932792;28;101861;-68
2023/12/09 04:42:23;;;;;;;;;11.67;8.00;;;;;-143.90;100.00;77074.69;4930924;28;103577;-69
2023/12/09 04:44:51;;;;;;;;;14.00;13.00;;;;;-143.90;100.00;77068.47;4929337;28;101887;-70
2023/12/09 04:47:17;;;;;;;;;8.00;5.00;;;;;-143.90;100.00;77074.69;4932213;28;101749;-69
2023/12/09 04:49:44;;;;;;;;;10.33;7.00;;;;;-143.90;100.00;77064.34;4933929;28;101721;-69
2023/12/09 04:52:11;;;;;;;;;10.00;8.00;;;;;-143.90;100.00;77064.34;4931977;28;103108;-68
2023/12/09 04:54:37;;;;;;;;;14.00;8.00;;;;;-143.90;100.00;77058.13;4932361;28;102044;-68
2023/12/09 04:57:04;;;;;;;;;9.33;6.33;;;;;-143.90;100.00;77054.00;4932143;28;101771;-69
2023/12/09 04:59:31;;;;;;;;;7.00;5.67;;;;;-143.90;100.00;77058.13;4934576;28;102950;-69
2023/12/09 05:01:58;;;;;;;;;4.67;4.00;;;;;-143.90;100.00;77054.00;4933030;28;108419;-69
2023/12/09 05:04:24;;;;;;;;;7.00;6.00;;;;;-143.90;100.00;77056.06;4931002;28;101690;-69
2023/12/09 05:06:51;;;;;;;;;4.33;1.67;;;;;-143.90;100.00;77049.84;4931382;28;101633;-69
2023/12/09 05:09:18;;;;;;;;;6.33;4.00;;;;;-143.90;100.00;77051.94;4932578;28;101460;-69
2023/12/09 05:11:44;;;;;;;;;7.33;3.33;;;;;-143.90;100.00;77043.66;4931349;28;103515;-69
2023/12/09 05:14:11;;;;;;;;;8.00;7.67;;;;;-143.90;100.00;77047.78;4930655;28;101841;-69
2023/12/09 05:16:38;;;;;;;;;14.00;10.67;;;;;-143.90;100.00;77041.59;4931043;28;101798;-69
2023/12/09 05:19:05;;;;;;;;;6.33;6.33;;;;;-143.90;100.00;77045.72;4931484;28;101826;-70
2023/12/09 05:21:33;;;;;;;;;10.67;7.33;;;;;-143.90;100.00;77041.59;4930719;28;103507;-70
2023/12/09 05:24:03;;;;;;;;;13.00;11.33;;;;;-143.90;100.00;77037.44;4932331;28;102230;-69
2023/12/09 05:26:30;;;;;;;;;28.33;21.33;;;;;-143.90;100.00;77041.59;4931674;28;101708;-68
2023/12/09 05:28:57;;;;;;;;;16.00;13.67;;;;;-143.90;100.00;77041.59;4931646;28;101600;-68
2023/12/09 05:31:24;;;;;;;;;20.33;14.33;;;;;-143.90;100.00;77041.59;4928287;28;103357;-69
2023/12/09 05:33:50;;;;;;;;;16.67;12.67;;;;;-143.90;100.00;77060.19;4930002;28;101881;-68
2023/12/09 05:36:17;;;;;;;;;44.00;36.00;;;;;-143.90;100.00;77078.81;4930254;28;101918;-68
2023/12/09 05:38:44;;;;;;;;;39.67;33.33;;;;;-143.90;100.00;77070.53;4932338;28;101884;-68
2023/12/09 05:41:11;;;;;;;;;39.00;28.33;;;;;-143.90;100.00;77068.47;4929455;28;103555;-69
2023/12/09 05:43:38;;;;;;;;;21.00;20.33;;;;;-143.90;100.00;77064.34;4931494;28;103000;-69
2023/12/09 05:46:06;;;;;;;;;26.33;20.33;;;;;-143.90;100.00;77074.69;4930676;28;101504;-69
2023/12/09 05:48:35;;;;;;;;;27.00;18.33;;;;;-143.90;100.00;77068.47;4931250;28;101630;-70
2023/12/09 05:51:02;;;;;;;;;14.67;11.00;;;;;-143.90;100.00;77060.19;4928180;28;103335;-70
2023/12/09 05:53:29;;;;;;;;;30.67;22.00;;;;;-143.90;100.00;77072.59;4933095;28;102268;-68
2023/12/09 05:55:56;;;;;;;;;21.67;19.33;;;;;-143.90;100.00;77066.41;4929978;28;101734;-68
2023/12/09 05:58:22;;;;;;;;;22.00;19.00;;;;;-143.90;100.00;77068.47;4931495;28;101611;-68
2023/12/09 06:00:49;;;;;;;;;22.33;16.00;;;;;-143.90;100.00;77066.41;4931208;28;103618;-68
2023/12/09 06:03:16;;;;;;;;;23.33;17.33;;;;;-143.90;100.00;77060.19;4928520;28;101866;-68
2023/12/09 06:05:42;;;;;;;;;14.67;11.67;;;;;-143.90;100.00;77058.13;4930628;28;101658;-68
2023/12/09 06:08:09;;;;;;;;;11.00;10.67;;;;;-143.90;100.00;77066.41;4931869;28;101904;-69
2023/12/09 06:10:36;;;;;;;;;14.00;12.67;;;;;-143.90;100.00;77058.13;4929104;28;103399;-69
2023/12/09 06:13:02;;;;;;;;;12.67;11.33;;;;;-143.90;100.00;77064.34;4932219;28;107372;-68
2023/12/09 06:15:30;;;;;;;;;16.00;13.00;;;;;-143.90;100.00;77064.34;4931713;28;101798;-69
2023/12/09 06:17:56;;;;;;;;;16.00;13.33;;;;;-143.90;100.00;77062.25;4930772;28;101915;-68
2023/12/09 06:20:23;;;;;;;;;13.00;10.00;;;;;-143.90;100.00;77066.41;4931281;28;103286;-69
2023/12/09 06:22:50;;;;;;;;;13.00;10.00;;;;;-143.90;100.00;77058.13;4930752;28;101807;-69
2023/12/09 06:25:16;;;;;;;;;13.67;10.00;;;;;-143.90;100.00;77062.25;4929019;28;101837;-69
2023/12/09 06:27:43;;;;;;;;;2.33;2.33;;;;;-143.90;100.00;77060.19;4930000;28;102206;-69
2023/12/09 06:30:10;;;;;;;;;14.67;8.00;;;;;-143.90;100.00;77054.00;4929459;28;103396;-69
2023/12/09 06:32:37;;;;;;;;;7.67;5.00;;;;;-143.90;100.00;77054.00;4929540;28;102955;-70
2023/12/09 06:35:04;;;;;;;;;13.00;11.00;;;;;-143.90;100.00;77056.06;4930654;28;101560;-69
2023/12/09 06:37:30;;;;;;;;;8.00;7.33;;;;;-143.90;100.00;77051.94;4945416;28;101790;-69
2023/12/09 06:39:57;;;;;;;;;7.00;7.00;;;;;-143.90;100.00;77049.84;4929070;28;103531;-68
2023/12/09 06:42:24;;;;;;;;;14.00;12.67;;;;;-143.90;100.00;77054.00;4930276;28;102117;-70
2023/12/09 06:44:51;;;;;;;;;15.33;14.00;;;;;-143.90;100.00;77043.66;4925502;28;101663;-70
2023/12/09 06:47:18;;;;;;;;;18.00;14.33;;;;;-143.90;100.00;77051.94;4930424;28;102045;-69
2023/12/09 06:49:44;;;;;;;;;22.33;17.67;;;;;-143.90;100.00;77049.84;4928868;28;103470;-69
2023/12/09 06:52:11;;;;;;;;;34.00;27.33;;;;;-143.90;100.00;77054.00;4929273;28;101851;-69
2023/12/09 06:54:37;;;;;;;;;22.33;21.00;;;;;-143.90;100.00;77047.78;4929272;28;101860;-69
2023/12/09 06:57:04;;;;;;;;;27.33;23.00;;;;;-143.90;100.00;77056.06;4943701;28;106940;-70
2023/12/09 06:59:31;;;;;;;;;20.00;14.33;;;;;-143.90;100.00;77041.59;4929568;28;103453;-69
2023/12/09 07:01:57;;;;;;;;;16.67;14.00;;;;;-143.90;100.00;77031.25;4928333;28;101947;-69
2023/12/09 07:04:24;;;;;;;;;20.67;14.00;;;;;-143.90;100.00;77029.19;4929564;28;101623;-69
2023/12/09 07:06:51;;;;;;;;;16.67;13.67;;;;;-143.90;100.00;77014.69;4929780;28;101694;-69
2023/12/09 07:09:18;;;;;;;;;17.00;14.00;;;;;-143.90;100.00;77000.22;4931297;28;103393;-69
2023/12/09 07:11:44;;;;;;;;;13.00;13.00;;;;;-143.90;100.00;76994.00;4930456;28;102028;-69
2023/12/09 07:14:13;;;;;;;;;19.33;16.00;;;;;-143.90;100.00;76987.81;4928987;28;102269;-70
2023/12/09 07:16:40;;;;;;;;;14.33;11.00;;;;;-143.90;100.00;76971.25;4914496;28;101914;-69
2023/12/09 07:19:06;;;;;;;;;14.00;10.00;;;;;-143.90;100.00;76963.00;4931381;28;104887;-70
2023/12/09 07:21:33;;;;;;;;;21.67;13.33;;;;;-143.90;100.00;76960.91;4931833;28;101946;-69
2023/12/09 07:24:00;;;;;;;;;17.00;16.33;;;;;-143.90;100.00;76958.84;4928583;28;101653;-70
2023/12/09 07:26:28;;;;;;;;;25.33;19.67;;;;;-143.90;100.00;76946.44;4931044;28;102229;-69
2023/12/09 07:28:54;;;;;;;;;14.33;11.67;;;;;-143.90;100.00;76942.31;4929467;28;103528;-69
2023/12/09 07:31:21;;;;;;;;;13.67;10.67;;;;;-143.90;100.00;76925.75;4927074;28;102640;-70
2023/12/09 07:33:48;;;;;;;;;31.67;24.00;;;;;-143.90;100.00;76925.75;4930702;28;101878;-70
2023/12/09 07:36:15;;;;;;;;;17.67;16.00;;;;;-143.90;100.00;76911.28;4929342;28;103257;-69
2023/12/09 07:38:41;;;;;;;;;19.00;15.33;;;;;-143.90;100.00;76898.88;4928082;28;103284;-69
2023/12/09 07:41:08;;;;;;;;;18.00;16.67;;;;;-143.90;100.00;76896.81;4928110;28;102400;-69
2023/12/09 07:43:34;;;;;;;;;17.00;14.00;;;;;-143.90;100.00;76894.72;4928581;28;102798;-70
2023/12/09 07:46:06;;;;;;;;;23.00;16.00;;;;;-143.90;100.00;76888.53;4930656;28;101602;-70
2023/12/09 07:48:33;;;;;;;;;16.67;11.00;;;;;-143.90;100.00;76876.13;4929315;28;105004;-69
2023/12/09 07:51:00;;;;;;;;;102.00;72.50;;;;;-143.90;100.00;76876.13;4928357;28;102033;-70
2023/12/09 07:53:27;;;;;;;;;79.00;57.00;;;;;-143.90;100.00;76869.91;4930172;28;101559;-69
2023/12/09 07:55:53;;;;;;;;;64.67;46.00;;;;;-143.90;100.00;76861.63;4929314;28;101523;-70
2023/12/09 07:58:22;;;;;;;;;71.67;47.00;;;;;-143.90;100.00;76851.31;4927964;28;103484;-69
2023/12/09 08:00:48;;;;;;;;;49.00;38.00;;;;;-143.90;100.00;76847.16;4928013;28;102876;-69
2023/12/09 08:03:15;;;;;;;;;38.00;27.67;;;;;-143.90;100.00;76836.81;4927745;28;101877;-70
2023/12/09 08:05:42;;;;;;;;;37.67;30.33;;;;;-143.90;100.00;76820.28;4930438;28;101638;-70
2023/12/09 08:08:12;;;;;;;;;28.00;21.33;;;;;-143.90;100.00;76816.13;4928620;28;103448;-69
2023/12/09 08:10:39;;;;;;;;;24.67;21.67;;;;;-143.90;100.00;76807.88;4927014;28;101694;-70
2023/12/09 08:13:08;;;;;;;;;22.67;19.67;;;;;-143.90;100.00;76793.38;4927311;28;101668;-70
2023/12/09 08:15:35;;;;;;;;;21.67;14.67;;;;;-143.90;100.00;76789.25;4930856;28;101647;-70
2023/12/09 08:18:03;;;;;;;;;24.00;20.33;;;;;-143.90;100.00;76780.97;4928688;28;107767;-70
2023/12/09 08:20:30;;;;;;;;;18.67;14.33;;;;;-143.90;100.00;76785.13;4929594;28;101672;-70
2023/12/09 08:22:56;;;;;;;;;18.33;15.67;;;;;-143.90;100.00;76772.72;4932985;28;101588;-70
2023/12/09 08:25:23;;;;;;;;;23.00;17.00;;;;;-143.90;100.00;76766.50;4932797;28;102790;-70
2023/12/09 08:27:50;;;;;;;;;18.67;15.00;;;;;-143.90;100.00;76764.44;4931173;28;103365;-69
2023/12/09 08:30:17;;;;;;;;;15.33;12.33;;;;;-143.90;100.00;76756.16;4931338;28;101939;-70
2023/12/09 08:32:44;;;;;;;;;21.67;16.33;;;;;-143.90;100.00;76747.88;4929979;28;101644;-70
2023/12/09 08:35:10;;;;;;;;;18.00;14.67;;;;;-143.90;100.00;76756.16;4933310;28;101624;-70
2023/12/09 08:37:38;;;;;;;;;23.67;20.33;;;;;-143.90;100.00;76735.47;4930062;28;104434;-70
2023/12/09 08:40:11;;;;;;;;;15.00;13.33;;;;;-143.90;100.00;76739.63;4931846;28;102069;-71
2023/12/09 08:42:43;;;;;;;;;21.33;18.00;;;;;-143.90;100.00;76735.47;4929076;28;102183;-70
2023/12/09 08:45:13;;;;;;;;;17.00;11.00;;;;;-143.90;100.00;76727.22;4947782;28;101816;-70
2023/12/09 08:47:40;;;;;;;;;9.67;9.00;;;;;-143.90;100.00;76733.41;4931977;28;103361;-70
2023/12/09 08:50:11;;;;;;;;;9.33;7.67;;;;;-143.90;100.00;76729.28;4932257;28;101819;-70
2023/12/09 08:52:53;;;;;;;;;8.33;7.00;;;;;-143.90;100.00;76716.88;4932339;28;101735;-71
2023/12/09 08:55:21;;;;;;;;;14.00;13.00;;;;;-143.90;100.00;76714.78;4932790;28;102814;-71
2023/12/09 08:57:48;;;;;;;;;14.00;11.67;;;;;-143.90;100.00;76710.66;4930984;28;103663;-71
2023/12/09 09:00:20;;;;;;;;;18.67;17.00;;;;;-143.90;100.00;76710.66;4930589;28;102036;-71
2023/12/09 09:02:47;;;;;;;;;23.00;19.00;;;;;-143.90;100.00;76710.66;4932789;28;102046;-71
2023/12/09 09:05:14;;;;;;;;;18.33;14.00;;;;;-143.90;100.00;76712.72;4932736;28;106349;-70
2023/12/09 09:07:44;;;;;;;;;15.67;15.67;;;;;-143.90;100.00;76698.25;4931779;28;103503;-72
2023/12/09 09:10:10;;;;;;;;;14.67;12.00;;;;;-143.90;100.00;76687.91;4930283;28;101701;-72
2023/12/09 09:12:37;;;;;;;;;20.67;15.00;;;;;-143.90;100.00;76681.72;4928813;28;101514;-71
2023/12/09 09:15:04;;;;;;;;;12.67;11.00;;;;;-143.90;100.00;76683.78;4933045;28;101561;-72
2023/12/09 09:17:34;;;;;;;;;14.67;12.00;;;;;-143.90;100.00;76681.72;4931128;28;107959;-71
2023/12/09 09:20:03;;;;;;;;;21.33;20.00;;;;;-143.90;100.00;76675.50;4930636;28;101936;-71
2023/12/09 09:22:29;;;;;;;;;22.00;20.25;;;;;-143.90;100.00;76673.44;4742819;28;5000976;-72
2023/12/09 09:24:58;;;;;;;;;19.00;15.00;;;;;-143.90;100.00;76679.63;4931026;28;102287;-71
2023/12/09 09:27:25;;;;;;;;;18.00;14.00;;;;;-143.90;100.00;76669.28;4931034;28;103628;-72
2023/12/09 09:29:53;;;;;;;;;15.33;15.33;;;;;-143.90;100.00;76667.22;4930720;28;101906;-71
2023/12/09 09:32:21;;;;;;;;;23.33;18.33;;;;;-143.90;100.00;76669.28;4928973;28;102863;-72
2023/12/09 09:34:48;;;;;;;;;14.67;12.67;;;;;-143.90;100.00;76665.16;4931342;28;102310;-72
2023/12/09 09:37:15;;;;;;;;;19.33;15.00;;;;;-143.90;100.00;76661.03;4926972;28;103390;-72
2023/12/09 09:39:48;;;;;;;;;16.67;14.00;;;;;-143.90;100.00;76656.88;4918592;28;102776;-71
2023/12/09 09:42:30;;;;;;;;;19.00;15.33;;;;;-143.90;100.00;76656.88;4913653;28;101948;-71
2023/12/09 09:45:00;;;;;;;;;23.00;19.33;;;;;-143.90;100.00;76642.41;4926701;28;102028;-72
2023/12/09 09:47:29;;;;;;;;;22.00;19.00;;;;;-143.90;100.00;76627.94;4932476;28;103745;-70
2023/12/09 09:49:58;;;;;;;;;26.00;19.00;;;;;-143.90;100.00;76619.66;4933387;28;101692;-71
2023/12/09 09:52:27;;;;;;;;;23.00;19.67;;;;;-143.90;100.00;76611.38;4930085;28;102590;-71
2023/12/09 09:54:55;;;;;;;;;24.33;19.00;;;;;-143.90;100.00;76594.84;4933505;28;101974;-72
2023/12/09 09:57:23;;;;;;;;;21.00;19.00;;;;;-143.90;100.00;76594.84;4932473;28;103405;-77
2023/12/09 09:59:56;;;;;;;;;19.67;17.33;;;;;-143.90;100.00;76582.44;4929596;28;101566;-78
2023/12/09 10:02:25;;;;;;;;;29.00;22.33;;;;;-143.90;100.00;76578.31;4927098;28;101807;-77
2023/12/09 10:04:53;;;;;;;;;42.33;35.67;;;;;-143.90;100.00;76586.56;4934329;28;101813;-78
2023/12/09 10:07:21;;;;;;;;;46.33;35.33;;;;;-143.90;100.00;76574.16;4928987;28;103622;-78
2023/12/09 10:09:48;;;;;;;;;33.33;27.67;;;;;-143.90;100.00;76563.81;4929263;28;101863;-78
2023/12/09 10:12:16;;;;;;;;;26.00;22.00;;;;;-143.90;100.00;76557.63;4932361;28;101943;-77
2023/12/09 10:14:43;;;;;;;;;37.00;28.67;;;;;-143.90;100.00;76570.03;4931882;28;101684;-78
2023/12/09 10:17:11;;;;;;;;;25.33;22.33;;;;;-143.90;100.00;76561.75;4931583;28;104063;-78
2023/12/09 10:19:38;;;;;;;;;22.00;15.00;;;;;-143.90;100.00;76557.63;4932208;28;101657;-75
2023/12/09 10:22:05;;;;;;;;;1.00;1.00;;;;;-143.90;100.00;76561.75;4932228;28;101726;-76
2023/12/09 10:24:31;;;;;;;;;20.00;16.67;;;;;-143.90;100.00;76557.63;4935015;28;101624;-77
2023/12/09 10:26:59;;;;;;;;;22.67;19.33;;;;;-143.90;100.00;76543.13;4931579;28;103482;-77
2023/12/09 10:29:25;;;;;;;;;19.33;16.33;;;;;-143.90;100.00;76541.06;4932715;28;101985;-76
2023/12/09 10:31:52;;;;;;;;;25.67;19.33;;;;;-143.90;100.00;76545.22;4928613;28;102604;-76
2023/12/09 10:34:20;;;;;;;;;28.33;24.67;;;;;-143.90;100.00;76536.94;4930335;28;102694;-77
2023/12/09 10:36:46;;;;;;;;;29.33;24.33;;;;;-143.90;100.00;76532.78;4929095;28;103369;-77
2023/12/09 10:39:13;;;;;;;;;25.33;22.33;;;;;-143.90;100.00;76532.78;4947646;28;101708;-77
2023/12/09 10:41:44;;;;;;;;;26.33;19.33;;;;;-143.90;100.00;76526.59;4930732;28;101673;-77
2023/12/09 10:44:10;;;;;;;;;26.00;22.67;;;;;-143.90;100.00;76522.47;4936751;28;101653;-77
2023/12/09 10:46:37;;;;;;;;;39.00;28.00;;;;;-143.90;100.00;76530.72;4930581;28;103437;-76
2023/12/09 10:49:05;;;;;;;;;64.00;48.00;;;;;-143.90;100.00;76570.03;4931648;28;106356;-77
2023/12/09 10:51:31;;;;;;;;;58.00;44.33;;;;;-143.90;100.00;76559.69;4930894;28;101668;-77